Time;durP1;ratioP1;P1;durP2;ratioP2;P2;SDS_P1;SDS_P2;PMS_P1;PMS_P2;Temp;Humidity;BMP_temperature;BMP_pressure;BME280_temperature;BME280_humidity;BME280_pressure;Samples;Min_cycle;Max_cycle;Signal;HPM_P1;HPM_P2
2022/08/25 00:01:19;;;;;;;12.73;11.07;;;20.70;99.90;;;;;;5112957;28;20131;-72
2022/08/25 00:03:46;;;;;;;13.98;10.90;;;20.70;99.90;;;;;;5113210;28;20036;-70
2022/08/25 00:06:12;;;;;;;11.82;10.57;;;20.70;99.90;;;;;;5113100;28;20051;-71
2022/08/25 00:08:39;;;;;;;13.15;9.65;;;20.50;99.90;;;;;;5112813;28;20572;-72
2022/08/25 00:11:10;;;;;;;12.50;10.18;;;20.70;99.90;;;;;;5112947;28;20035;-71
2022/08/25 00:13:40;;;;;;;12.77;10.43;;;20.80;99.90;;;;;;5113025;28;20047;-71
2022/08/25 00:16:06;;;;;;;17.60;10.13;;;20.60;99.90;;;;;;5112669;28;20522;-70
2022/08/25 00:18:32;;;;;;;18.40;10.45;;;20.40;99.90;;;;;;5113017;28;20052;-72
2022/08/25 00:20:57;;;;;;;13.18;10.25;;;20.80;99.90;;;;;;5112883;28;20054;-71
2022/08/25 00:23:23;;;;;;;11.52;10.43;;;20.60;99.90;;;;;;5112834;28;20475;-71
2022/08/25 00:25:49;;;;;;;14.10;11.23;;;20.20;99.90;;;;;;5112834;28;20047;-70
2022/08/25 00:28:16;;;;;;;13.80;10.57;;;20.50;99.90;;;;;;5112547;28;20122;-71
2022/08/25 00:30:43;;;;;;;11.75;10.55;;;20.50;99.90;;;;;;5112229;28;20590;-71
2022/08/25 00:33:09;;;;;;;15.27;10.93;;;20.50;99.90;;;;;;5112140;28;20094;-71
2022/08/25 00:35:35;;;;;;;11.98;10.52;;;20.70;99.90;;;;;;5112666;28;20047;-71
2022/08/25 00:38:01;;;;;;;13.35;10.27;;;20.40;99.90;;;;;;5112696;28;20121;-69
2022/08/25 00:40:28;;;;;;;13.00;9.40;;;20.20;99.90;;;;;;5112557;28;20043;-71
2022/08/25 00:42:54;;;;;;;12.38;9.55;;;20.40;99.90;;;;;;5112330;28;20407;-71
2022/08/25 00:45:21;;;;;;;12.00;9.13;;;20.50;99.90;;;;;;5112286;28;20522;-71
2022/08/25 00:47:46;;;;;;;14.27;10.10;;;20.40;99.90;;;;;;5112568;28;20073;-71
2022/08/25 00:50:12;;;;;;;15.45;10.50;;;20.40;99.90;;;;;;5112466;28;20036;-70
2022/08/25 00:52:46;;;;;;;14.13;9.48;;;20.30;99.90;;;;;;5112240;28;20501;-73
2022/08/25 00:55:23;;;;;;;12.93;9.20;;;20.60;99.90;;;;;;5112678;28;20040;-70
2022/08/25 00:57:55;;;;;;;11.85;9.50;;;20.20;99.90;;;;;;5112503;28;20463;-71
2022/08/25 01:00:31;;;;;;;12.55;9.63;;;20.30;99.90;;;;;;5112719;28;20044;-71
2022/08/25 01:02:57;;;;;;;16.40;9.30;;;20.30;99.90;;;;;;5112478;28;20535;-68
2022/08/25 01:05:24;;;;;;;14.43;9.25;;;20.30;99.90;;;;;;5112355;28;20142;-71
2022/08/25 01:07:51;;;;;;;10.90;9.48;;;20.10;99.90;;;;;;5112399;28;20070;-71
2022/08/25 01:10:20;;;;;;;10.93;9.38;;;20.40;99.90;;;;;;5112292;28;20051;-70
2022/08/25 01:12:46;;;;;;;11.55;9.30;;;20.50;99.90;;;;;;5111989;28;20101;-71
2022/08/25 01:15:13;;;;;;;11.70;8.77;;;20.30;99.90;;;;;;5112242;28;20047;-71
2022/08/25 01:17:56;;;;;;;12.77;8.85;;;20.20;99.90;;;;;;5094036;28;20081;-70
2022/08/25 01:20:24;;;;;;;13.77;9.52;;;20.20;99.90;;;;;;5112241;28;20432;-70
2022/08/25 01:22:51;;;;;;;10.60;9.25;;;20.00;99.90;;;;;;5112234;28;20058;-70
2022/08/25 01:25:38;;;;;;;11.70;8.73;;;20.40;99.90;;;;;;5112220;28;20309;-71
2022/08/25 01:28:04;;;;;;;13.07;9.23;;;20.20;99.90;;;;;;5111876;28;20094;-71
2022/08/25 01:30:29;;;;;;;16.45;8.98;;;20.10;99.90;;;;;;5111578;28;20095;-72
2022/08/25 01:32:55;;;;;;;14.05;9.07;;;20.30;99.90;;;;;;5112112;28;20126;-72
2022/08/25 01:35:21;;;;;;;14.73;9.77;;;20.30;99.90;;;;;;5112057;28;20039;-72
2022/08/25 01:37:47;;;;;;;13.63;9.30;;;20.10;99.90;;;;;;5112056;28;20139;-68
2022/08/25 01:40:13;;;;;;;15.15;9.50;;;20.20;99.90;;;;;;5112004;28;20105;-69
2022/08/25 01:43:06;;;;;;;11.57;8.95;;;20.20;99.90;;;;;;5111733;28;20048;-72
2022/08/25 01:45:36;;;;;;;12.43;8.75;;;20.00;99.90;;;;;;5115285;28;20113;-71
2022/08/25 01:48:03;;;;;;;12.27;9.30;;;20.00;99.90;;;;;;5115835;28;20047;-71
2022/08/25 01:50:29;;;;;;;12.70;9.15;;;20.00;99.90;;;;;;5115698;28;20047;-71
2022/08/25 01:53:14;;;;;;;12.30;9.02;;;19.80;99.90;;;;;;5097763;28;20380;-69
2022/08/25 01:55:52;;;;;;;11.93;9.32;;;19.80;99.90;;;;;;5115470;28;20142;-72
2022/08/25 01:58:27;;;;;;;12.52;9.75;;;20.20;99.90;;;;;;5115668;28;20508;-70
2022/08/25 02:00:56;;;;;;;11.40;9.63;;;19.90;99.90;;;;;;5115576;28;20087;-70
2022/08/25 02:03:23;;;;;;;15.88;9.80;;;19.70;99.90;;;;;;5115593;28;20116;-70
2022/08/25 02:05:49;;;;;;;14.65;9.32;;;19.70;99.90;;;;;;5115510;28;20043;-71
2022/08/25 02:08:15;;;;;;;16.00;9.50;;;19.90;99.90;;;;;;5115431;28;20039;-72
2022/08/25 02:10:41;;;;;;;11.20;9.25;;;19.90;99.90;;;;;;5114717;28;20048;-70
2022/08/25 02:13:07;;;;;;;15.43;9.10;;;19.80;99.90;;;;;;5097305;28;20044;-70
2022/08/25 02:15:33;;;;;;;12.98;8.60;;;19.70;99.90;;;;;;5115289;28;20051;-71
2022/08/25 02:17:59;;;;;;;11.40;8.60;;;19.60;99.90;;;;;;5115288;28;20088;-72
2022/08/25 02:20:25;;;;;;;12.93;8.50;;;19.80;99.90;;;;;;5115244;28;20436;-70
2022/08/25 02:22:52;;;;;;;13.85;8.18;;;20.00;99.90;;;;;;5115157;28;20050;-70
2022/08/25 02:25:18;;;;;;;11.35;7.70;;;19.60;99.90;;;;;;5114503;28;20541;-69
2022/08/25 02:27:45;;;;;;;14.45;7.80;;;19.50;99.90;;;;;;5115099;28;20053;-71
2022/08/25 02:30:12;;;;;;;12.98;7.22;;;19.40;99.90;;;;;;5114874;28;20058;-70
2022/08/25 02:32:38;;;;;;;9.98;7.60;;;19.60;99.90;;;;;;5115018;28;20376;-68
2022/08/25 02:35:05;;;;;;;9.00;7.50;;;19.60;99.90;;;;;;5114987;28;20084;-71
2022/08/25 02:37:31;;;;;;;12.70;7.72;;;19.40;99.90;;;;;;5096640;28;20044;-67
2022/08/25 02:39:58;;;;;;;11.55;7.45;;;19.50;99.90;;;;;;5114583;28;20052;-69
2022/08/25 02:42:23;;;;;;;9.07;7.10;;;19.40;99.90;;;;;;5114842;28;20118;-70
2022/08/25 02:44:49;;;;;;;10.48;7.07;;;19.40;99.90;;;;;;5114779;28;20130;-70
2022/08/25 02:47:15;;;;;;;9.15;6.93;;;19.70;99.90;;;;;;5114844;28;20535;-70
2022/08/25 02:49:41;;;;;;;8.32;7.35;;;19.30;99.90;;;;;;5114976;28;20400;-71
2022/08/25 02:52:07;;;;;;;12.10;7.32;;;19.20;99.90;;;;;;5114625;28;20391;-70
2022/08/25 02:54:34;;;;;;;12.07;7.70;;;19.40;99.90;;;;;;5114101;28;20444;-69
2022/08/25 02:57:00;;;;;;;8.68;7.05;;;19.50;99.90;;;;;;5113963;28;20090;-71
2022/08/25 02:59:26;;;;;;;9.80;7.10;;;19.40;99.90;;;;;;5096166;28;20058;-71
2022/08/25 03:01:52;;;;;;;12.30;7.00;;;19.30;99.90;;;;;;5114469;28;20185;-69
2022/08/25 03:04:18;;;;;;;10.25;6.35;;;19.50;99.90;;;;;;5096402;28;20049;-71
2022/08/25 03:06:44;;;;;;;12.77;7.07;;;19.20;99.90;;;;;;5114286;28;20043;-67
2022/08/25 03:09:10;;;;;;;9.20;6.93;;;19.20;99.90;;;;;;5114008;28;20128;-70
2022/08/25 03:11:37;;;;;;;7.57;6.53;;;19.10;99.90;;;;;;5113888;28;20641;-70
2022/08/25 03:14:04;;;;;;;10.43;6.90;;;19.00;99.90;;;;;;5114189;28;20070;-70
2022/08/25 03:16:30;;;;;;;10.27;6.60;;;19.20;99.90;;;;;;5114162;28;20403;-70
2022/08/25 03:18:56;;;;;;;9.50;6.95;;;19.10;99.90;;;;;;5113923;28;20047;-71
2022/08/25 03:21:23;;;;;;;11.80;7.30;;;19.30;99.90;;;;;;5114025;28;20044;-70
2022/08/25 03:23:49;;;;;;;9.02;7.40;;;18.60;99.90;;;;;;5113742;28;20047;-71
2022/08/25 03:29:00;;;;;;;10.20;7.13;;;19.00;99.90;;;;;;5113686;28;20073;-70
2022/08/25 03:31:26;;;;;;;12.40;7.53;;;19.20;99.90;;;;;;5113870;28;20403;-70
2022/08/25 03:33:52;;;;;;;11.77;7.72;;;19.10;99.90;;;;;;5113708;28;20122;-70
2022/08/25 03:36:18;;;;;;;9.18;6.80;;;19.20;99.90;;;;;;5113746;28;20067;-71
2022/08/25 03:38:44;;;;;;;11.35;8.13;;;18.70;99.90;;;;;;5113652;28;20054;-70
2022/08/25 03:41:15;;;;;;;8.82;7.35;;;18.80;99.90;;;;;;5113659;28;20344;-70
2022/08/25 03:43:41;;;;;;;9.15;6.95;;;18.50;99.90;;;;;;5113674;28;20433;-71
2022/08/25 03:46:07;;;;;;;12.57;7.53;;;18.70;99.90;;;;;;5113784;28;20139;-71
2022/08/25 03:48:32;;;;;;;13.00;7.78;;;18.70;99.90;;;;;;5113797;28;20047;-71
2022/08/25 03:50:58;;;;;;;11.75;7.10;;;18.60;99.90;;;;;;5113332;28;20040;-71
2022/08/25 03:53:24;;;;;;;9.60;6.97;;;18.70;99.90;;;;;;5094847;28;20051;-71
2022/08/25 03:55:50;;;;;;;11.45;7.00;;;18.60;99.90;;;;;;5095048;28;20065;-72
2022/08/25 03:58:16;;;;;;;14.93;7.90;;;18.60;99.90;;;;;;5113002;28;20130;-71
2022/08/25 04:00:42;;;;;;;10.30;7.35;;;18.60;99.90;;;;;;5113235;28;20044;-69
2022/08/25 04:03:08;;;;;;;9.88;7.47;;;18.50;99.90;;;;;;5095238;28;20055;-71
2022/08/25 04:05:34;;;;;;;11.55;7.60;;;18.50;99.90;;;;;;5113240;28;20051;-71
2022/08/25 04:08:00;;;;;;;8.98;7.18;;;18.40;99.90;;;;;;5112000;28;20058;-71
2022/08/25 04:10:26;;;;;;;8.15;6.97;;;18.50;99.90;;;;;;5112984;28;20475;-71
2022/08/25 04:12:51;;;;;;;10.95;7.03;;;18.50;99.90;;;;;;5113027;28;20051;-71
2022/08/25 04:15:17;;;;;;;12.23;7.93;;;18.40;99.90;;;;;;5113027;28;20054;-70
2022/08/25 04:17:43;;;;;;;9.07;7.53;;;18.50;99.90;;;;;;5112912;28;20537;-72
2022/08/25 04:20:10;;;;;;;19.70;7.10;;;18.10;99.90;;;;;;5112854;28;20065;-69
2022/08/25 04:22:37;;;;;;;10.13;7.00;;;18.50;99.90;;;;;;5112637;28;20442;-70
2022/08/25 04:25:05;;;;;;;12.10;6.70;;;18.40;99.90;;;;;;5112541;28;20372;-69
2022/08/25 04:27:31;;;;;;;10.07;6.80;;;18.50;99.90;;;;;;5112798;28;20130;-71
2022/08/25 04:29:56;;;;;;;11.43;7.10;;;18.40;99.90;;;;;;5112615;28;20134;-71
2022/08/25 04:32:22;;;;;;;13.90;7.20;;;18.30;99.90;;;;;;5112731;28;20180;-71
2022/08/25 04:34:48;;;;;;;9.63;7.63;;;18.40;99.90;;;;;;5112363;28;20043;-70
2022/08/25 04:37:13;;;;;;;10.45;7.13;;;18.20;99.90;;;;;;5094503;28;20066;-70
2022/08/25 04:39:39;;;;;;;11.15;7.07;;;18.30;99.90;;;;;;5112712;28;20112;-69
2022/08/25 04:42:05;;;;;;;9.02;7.22;;;18.40;99.90;;;;;;5094929;28;20505;-72
2022/08/25 04:44:31;;;;;;;9.23;7.30;;;18.30;99.90;;;;;;5112861;28;20089;-72
2022/08/25 04:46:58;;;;;;;9.80;7.55;;;18.30;99.90;;;;;;5112610;28;20047;-69
2022/08/25 04:49:24;;;;;;;10.32;7.43;;;18.10;99.90;;;;;;5112359;28;20134;-69
2022/08/25 04:51:50;;;;;;;12.02;7.25;;;18.40;99.90;;;;;;5112440;28;20073;-70
2022/08/25 04:54:20;;;;;;;9.00;7.25;;;18.30;99.90;;;;;;5112552;28;20048;-67
2022/08/25 04:56:46;;;;;;;10.77;8.23;;;18.20;99.90;;;;;;5112563;28;20406;-68
2022/08/25 04:59:14;;;;;;;12.88;8.07;;;18.30;99.90;;;;;;5112452;28;20506;-71
2022/08/25 05:01:42;;;;;;;11.38;7.40;;;18.30;99.90;;;;;;5112455;28;20132;-71
2022/08/25 05:04:10;;;;;;;11.35;7.47;;;18.10;99.90;;;;;;5112109;28;20048;-70
2022/08/25 05:06:36;;;;;;;11.38;7.53;;;18.40;99.90;;;;;;5112393;28;20058;-70
2022/08/25 05:09:03;;;;;;;9.15;7.28;;;18.40;99.90;;;;;;5112428;28;20052;-71
2022/08/25 05:11:29;;;;;;;11.48;8.00;;;18.40;99.90;;;;;;5112252;28;20039;-70
2022/08/25 05:13:56;;;;;;;11.52;7.70;;;18.50;99.90;;;;;;5112303;28;20047;-70
2022/08/25 05:16:23;;;;;;;9.80;7.50;;;18.20;99.90;;;;;;5094033;28;20058;-71
2022/08/25 05:18:49;;;;;;;11.50;7.57;;;18.00;99.90;;;;;;5112174;28;20514;-70
2022/08/25 05:21:18;;;;;;;13.52;7.60;;;18.20;99.90;;;;;;5116348;28;20043;-71
2022/08/25 05:23:45;;;;;;;11.48;7.78;;;18.60;99.90;;;;;;5116267;28;20098;-70
2022/08/25 05:26:21;;;;;;;9.10;7.45;;;18.40;99.90;;;;;;5116219;28;20052;-71
2022/08/25 05:28:49;;;;;;;16.45;8.52;;;18.50;99.90;;;;;;5115998;28;20055;-72
2022/08/25 05:31:15;;;;;;;13.07;8.07;;;18.60;99.90;;;;;;5116085;28;20048;-70
2022/08/25 05:33:41;;;;;;;12.18;8.38;;;18.20;99.90;;;;;;5115851;28;20051;-70
2022/08/25 05:36:09;;;;;;;11.95;7.70;;;18.50;99.90;;;;;;5097999;28;20052;-70
2022/08/25 05:38:36;;;;;;;12.35;7.68;;;18.70;99.90;;;;;;5116044;28;20052;-71
2022/08/25 05:41:05;;;;;;;17.15;8.10;;;18.50;99.90;;;;;;5097678;28;20070;-70
2022/08/25 05:43:32;;;;;;;12.93;7.85;;;18.80;99.90;;;;;;5097687;28;20390;-69
2022/08/25 05:45:58;;;;;;;10.07;7.63;;;19.00;99.90;;;;;;5115900;28;20495;-70
2022/08/25 05:48:25;;;;;;;12.32;7.72;;;18.80;99.90;;;;;;5115549;28;20044;-71
2022/08/25 05:50:56;;;;;;;10.93;8.00;;;18.80;99.90;;;;;;5115698;28;20046;-71
2022/08/25 05:53:23;;;;;;;9.70;7.57;;;18.70;99.90;;;;;;5115804;28;20094;-71
2022/08/25 05:55:51;;;;;;;14.73;7.47;;;19.00;99.90;;;;;;5115702;28;20040;-69
2022/08/25 05:58:17;;;;;;;9.68;7.78;;;19.00;99.90;;;;;;5115708;28;20043;-70
2022/08/25 06:00:42;;;;;;;11.73;7.20;;;19.20;99.90;;;;;;5115576;28;20447;-71
2022/08/25 06:03:08;;;;;;;12.30;7.30;;;19.30;99.90;;;;;;5115031;28;20085;-71
2022/08/25 06:05:34;;;;;;;10.98;7.30;;;19.30;99.90;;;;;;5115584;28;20154;-71
2022/08/25 06:08:00;;;;;;;14.60;7.40;;;19.20;99.90;;;;;;5115445;28;20122;-70
2022/08/25 06:10:26;;;;;;;9.05;6.82;;;19.40;99.90;;;;;;5115319;28;20040;-69
2022/08/25 06:12:52;;;;;;;11.20;7.47;;;19.50;99.90;;;;;;5115381;28;20047;-70
2022/08/25 06:15:20;;;;;;;11.82;6.95;;;19.50;99.90;;;;;;5114997;28;20051;-71
2022/08/25 06:17:47;;;;;;;9.30;6.65;;;19.70;99.90;;;;;;5115049;28;20693;-71
2022/08/25 06:20:18;;;;;;;10.50;7.15;;;19.90;99.90;;;;;;5115206;28;20048;-69
2022/08/25 06:22:45;;;;;;;9.75;6.60;;;19.90;99.90;;;;;;5115296;28;20043;-71
2022/08/25 06:25:12;;;;;;;15.85;7.53;;;19.80;99.90;;;;;;5115172;28;20075;-71
2022/08/25 06:27:38;;;;;;;14.00;6.50;;;20.20;99.90;;;;;;5115144;28;20039;-69
2022/08/25 06:30:06;;;;;;;10.80;6.40;;;19.70;99.90;;;;;;5079210;28;20430;-69
2022/08/25 06:32:34;;;;;;;9.73;6.82;;;19.90;99.90;;;;;;5096064;28;20048;-69
2022/08/25 06:35:04;;;;;;;13.57;6.85;;;20.20;99.90;;;;;;5115249;28;20036;-71
2022/08/25 06:37:31;;;;;;;11.23;6.78;;;20.70;99.90;;;;;;5115096;28;20063;-71
2022/08/25 06:39:57;;;;;;;13.63;7.03;;;20.40;99.90;;;;;;5114868;28;20134;-69
2022/08/25 06:42:22;;;;;;;10.93;6.90;;;20.60;99.90;;;;;;5114743;28;20151;-71
2022/08/25 06:44:48;;;;;;;11.48;6.53;;;19.40;99.90;;;;;;5114784;28;20538;-69
2022/08/25 06:47:17;;;;;;;10.50;6.82;;;20.80;99.90;;;;;;5096248;28;20047;-70
2022/08/25 06:49:44;;;;;;;11.90;6.88;;;21.10;99.90;;;;;;5114744;28;20460;-71
2022/08/25 06:52:10;;;;;;;11.27;7.13;;;20.80;99.90;;;;;;5114608;28;20126;-67
2022/08/25 06:54:36;;;;;;;10.23;6.40;;;20.90;99.90;;;;;;5114607;28;20052;-69
2022/08/25 06:57:04;;;;;;;9.90;6.60;;;21.20;99.90;;;;;;5114534;28;20051;-70
2022/08/25 06:59:31;;;;;;;13.63;7.50;;;21.50;99.90;;;;;;5114476;28;20048;-72
2022/08/25 07:01:56;;;;;;;9.88;6.38;;;21.20;99.90;;;;;;5114201;28;20138;-68
2022/08/25 07:04:22;;;;;;;10.30;6.60;;;21.30;99.90;;;;;;5114328;28;20130;-68
2022/08/25 07:06:48;;;;;;;11.15;7.00;;;21.40;99.90;;;;;;5096088;28;20079;-70
2022/08/25 07:09:13;;;;;;;14.32;6.05;;;21.70;99.90;;;;;;5114283;28;20467;-71
2022/08/25 07:11:40;;;;;;;11.05;7.55;;;21.50;99.90;;;;;;5095961;28;20586;-68
2022/08/25 07:14:10;;;;;;;11.48;6.75;;;21.90;99.90;;;;;;5114210;28;20047;-71
2022/08/25 07:16:36;;;;;;;11.35;6.43;;;22.20;99.90;;;;;;5113922;28;20138;-71
2022/08/25 07:19:03;;;;;;;10.80;7.05;;;21.90;99.90;;;;;;5114051;28;20088;-68
2022/08/25 07:21:33;;;;;;;11.93;7.03;;;22.40;99.90;;;;;;5114047;28;20365;-69
2022/08/25 07:23:59;;;;;;;10.27;6.45;;;21.90;99.90;;;;;;5113986;28;20047;-70
2022/08/25 07:26:29;;;;;;;12.93;7.03;;;22.20;99.90;;;;;;5113948;28;20107;-70
2022/08/25 07:28:57;;;;;;;17.10;6.95;;;22.40;99.90;;;;;;5113686;28;20070;-67
2022/08/25 07:31:23;;;;;;;11.43;6.93;;;22.30;99.90;;;;;;5113862;28;20055;-71
2022/08/25 07:36:34;;;;;;;9.90;6.72;;;22.30;99.90;;;;;;5113762;28;20077;-69
2022/08/25 07:39:04;;;;;;;9.02;6.72;;;22.60;99.90;;;;;;5095114;28;20479;-71
2022/08/25 07:41:38;;;;;;;14.55;7.28;;;22.70;99.90;;;;;;5113545;28;20040;-72
2022/08/25 07:44:05;;;;;;;12.13;6.72;;;22.90;99.90;;;;;;5113376;28;20051;-70
2022/08/25 07:46:30;;;;;;;8.55;6.88;;;23.30;99.90;;;;;;5113528;28;20114;-72
2022/08/25 07:48:56;;;;;;;12.68;6.95;;;22.70;99.90;;;;;;5095176;28;20566;-67
2022/08/25 07:51:22;;;;;;;9.52;6.53;;;23.20;99.90;;;;;;5113370;28;20251;-67
2022/08/25 07:53:47;;;;;;;9.05;6.55;;;23.10;99.90;;;;;;5113133;28;20434;-69
2022/08/25 07:56:15;;;;;;;13.20;6.55;;;23.10;99.90;;;;;;5113334;28;20054;-71
2022/08/25 07:58:42;;;;;;;10.68;6.75;;;23.60;99.90;;;;;;5113043;28;20043;-68
2022/08/25 08:01:14;;;;;;;10.18;6.68;;;23.30;99.90;;;;;;5094989;28;20396;-72
2022/08/25 08:03:41;;;;;;;10.43;6.18;;;23.50;99.90;;;;;;5113232;28;20040;-70
2022/08/25 08:06:08;;;;;;;13.77;7.13;;;23.80;99.90;;;;;;5113178;28;20065;-67
2022/08/25 08:08:43;;;;;;;11.40;5.93;;;23.90;99.90;;;;;;5113172;28;20055;-68
2022/08/25 08:11:18;;;;;;;7.75;5.95;;;24.30;99.90;;;;;;5113104;28;20078;-70
2022/08/25 08:13:46;;;;;;;10.90;5.97;;;24.10;99.90;;;;;;5112765;28;20047;-70
2022/08/25 08:16:14;;;;;;;11.55;5.93;;;24.00;99.90;;;;;;5113049;28;20475;-71
2022/08/25 08:18:41;;;;;;;8.75;6.18;;;24.50;99.90;;;;;;5113023;28;20464;-67
2022/08/25 08:21:21;;;;;;;13.05;6.28;;;24.30;99.90;;;;;;5112995;28;20449;-72
2022/08/25 08:23:48;;;;;;;14.70;5.70;;;24.40;99.90;;;;;;5112984;28;20051;-67
2022/08/25 08:26:14;;;;;;;10.85;6.13;;;24.50;99.90;;;;;;5113071;28;20101;-72
2022/08/25 08:28:40;;;;;;;11.18;5.70;;;24.90;99.90;;;;;;5112710;28;20471;-71
2022/08/25 08:31:06;;;;;;;9.10;5.70;;;24.70;99.90;;;;;;5112752;28;20130;-72
2022/08/25 08:33:33;;;;;;;9.70;5.47;;;24.80;99.90;;;;;;5094296;28;20043;-68
2022/08/25 08:36:02;;;;;;;10.60;5.35;;;24.80;99.90;;;;;;5112818;28;20062;-71
2022/08/25 08:38:27;;;;;;;7.57;5.00;;;25.10;99.90;;;;;;5112755;28;20044;-71
2022/08/25 08:44:44;;;;;;;8.68;4.70;;;25.40;99.90;;;;;;5112660;28;20062;-71
2022/08/25 08:47:40;;;;;;;7.57;4.72;;;25.40;99.90;;;;;;5112649;28;20058;-70
2022/08/25 08:50:27;;;;;;;11.43;5.75;;;25.70;99.90;;;;;;5112485;28;20043;-73
2022/08/25 08:53:05;;;;;;;10.10;5.20;;;25.60;99.90;;;;;;5112606;28;20052;-66
2022/08/25 08:55:48;;;;;;;7.30;4.63;;;25.70;99.90;;;;;;5112212;28;20063;-68
2022/08/25 08:58:41;;;;;;;6.82;4.68;;;25.80;99.90;;;;;;5112615;28;20087;-71
2022/08/25 09:01:09;;;;;;;10.73;5.10;;;26.10;99.90;;;;;;5112502;28;20051;-72
2022/08/25 09:03:45;;;;;;;8.48;4.60;;;26.30;99.90;;;;;;5112418;28;20062;-71
2022/08/25 09:06:40;;;;;;;16.45;4.25;;;26.40;99.90;;;;;;5112473;28;20122;-71
2022/08/25 09:09:08;;;;;;;17.98;5.18;;;26.60;99.90;;;;;;5112395;28;20047;-69
2022/08/25 09:11:42;;;;;;;6.65;4.72;;;26.40;99.90;;;;;;5093796;28;20463;-71
2022/08/25 09:14:26;;;;;;;12.32;4.85;;;26.80;99.90;;;;;;5112036;28;20492;-70
2022/08/25 09:17:01;;;;;;;11.05;4.30;;;26.80;99.90;;;;;;5112245;28;20496;-67
2022/08/25 09:19:30;;;;;;;10.75;4.60;;;26.50;99.90;;;;;;5112355;28;20055;-71
2022/08/25 09:22:11;;;;;;;9.52;4.07;;;27.30;99.90;;;;;;5112262;28;20078;-69
2022/08/25 09:25:06;;;;;;;14.05;4.32;;;27.10;99.90;;;;;;5112291;28;20048;-70
2022/08/25 09:27:47;;;;;;;7.45;4.00;;;27.10;99.90;;;;;;5109152;28;20551;-69
2022/08/25 09:30:21;;;;;;;7.32;3.70;;;27.50;99.90;;;;;;5093656;28;20441;-70
2022/08/25 09:32:49;;;;;;;9.32;4.43;;;27.30;99.90;;;;;;5112185;28;20376;-71
2022/08/25 09:35:26;;;;;;;12.27;4.00;;;27.40;99.90;;;;;;5112111;28;20505;-68
2022/08/25 09:37:57;;;;;;;8.52;3.97;;;27.20;99.90;;;;;;5112061;28;20089;-69
2022/08/25 09:40:24;;;;;;;7.00;3.47;;;27.60;99.90;;;;;;5111918;28;20048;-69
2022/08/25 09:42:53;;;;;;;11.10;3.92;;;27.70;99.90;;;;;;5112051;28;20057;-70
2022/08/25 09:45:35;;;;;;;4.40;3.60;;;28.20;99.90;;;;;;5112007;28;20043;-72
2022/08/25 09:48:01;;;;;;;6.25;3.38;;;27.80;99.90;;;;;;5112020;28;20136;-70
2022/08/25 09:50:31;;;;;;;6.63;3.08;;;28.00;99.90;;;;;;5111868;28;20066;-66
2022/08/25 09:53:12;;;;;;;9.13;3.40;;;28.00;99.90;;;;;;5111691;28;20515;-70
2022/08/25 09:55:42;;;;;;;6.70;3.17;;;27.90;99.90;;;;;;5111721;28;20036;-70
2022/08/25 09:58:26;;;;;;;10.60;3.20;;;28.40;99.90;;;;;;5111923;28;20166;-70
2022/08/25 10:01:17;;;;;;;10.38;3.65;;;28.50;99.90;;;;;;5111930;28;20067;-68
2022/08/25 10:04:09;;;;;;;4.45;2.75;;;28.50;99.90;;;;;;5111942;28;20044;-67
2022/08/25 10:06:46;;;;;;;6.00;3.05;;;28.90;99.90;;;;;;5108522;28;20059;-71
2022/08/25 10:09:33;;;;;;;5.80;2.80;;;28.90;99.90;;;;;;5097133;28;20039;-71
2022/08/25 10:12:03;;;;;;;7.68;2.88;;;28.80;99.90;;;;;;5115383;28;20107;-67
2022/08/25 10:14:39;;;;;;;8.45;2.88;;;28.70;99.90;;;;;;5115481;28;20048;-66
2022/08/25 10:17:11;;;;;;;5.47;2.70;;;28.80;99.90;;;;;;5115458;28;20070;-71
2022/08/25 10:19:37;;;;;;;8.40;3.25;;;29.00;99.90;;;;;;5115403;28;20063;-69
2022/08/25 10:22:31;;;;;;;6.25;2.50;;;29.20;99.90;;;;;;5097245;28;20395;-70
2022/08/25 10:25:00;;;;;;;5.97;2.70;;;29.00;99.90;;;;;;5115056;28;20055;-68
2022/08/25 10:27:57;;;;;;;9.32;2.45;;;29.10;98.70;;;;;;5115078;28;20449;-69
2022/08/25 10:30:30;;;;;;;7.72;3.15;;;29.20;99.00;;;;;;5102215;28;20059;-69
2022/08/25 10:33:22;;;;;;;3.20;2.47;;;29.30;98.80;;;;;;5115175;28;20051;-70
2022/08/25 10:36:06;;;;;;;4.30;2.67;;;29.50;97.80;;;;;;5115025;28;20043;-67
2022/08/25 10:38:42;;;;;;;7.10;2.33;;;29.50;97.50;;;;;;5114685;28;20059;-68
2022/08/25 10:41:28;;;;;;;4.32;2.30;;;29.50;98.10;;;;;;5114985;28;20044;-69
2022/08/25 10:43:57;;;;;;;;;;;29.20;96.70;;;;;;5115406;28;20040;-68
2022/08/25 10:46:40;;;;;;;3.60;2.25;;;29.80;97.00;;;;;;5114842;28;20007;-70
2022/08/25 10:49:21;;;;;;;7.10;3.00;;;29.40;96.70;;;;;;5115118;28;20083;-69
2022/08/25 10:52:00;;;;;;;3.83;2.42;;;29.80;96.70;;;;;;5114409;28;20047;-68
2022/08/25 10:54:52;;;;;;;7.55;2.50;;;29.90;95.30;;;;;;5114729;28;20056;-67
2022/08/25 10:57:37;;;;;;;7.03;2.85;;;29.90;96.10;;;;;;5114651;28;20039;-68
2022/08/25 11:00:21;;;;;;;4.30;2.53;;;29.80;95.60;;;;;;5114559;28;20058;-70
2022/08/25 11:03:03;;;;;;;6.68;2.72;;;30.20;96.20;;;;;;5114559;28;20066;-71
2022/08/25 11:05:29;;;;;;;9.57;2.83;;;29.90;96.90;;;;;;5114474;28;20047;-65
2022/08/25 11:08:22;;;;;;;5.95;2.35;;;30.10;96.50;;;;;;5114095;28;20044;-68
2022/08/25 11:11:08;;;;;;;4.80;2.58;;;30.00;95.00;;;;;;5114274;28;20100;-71
2022/08/25 11:13:40;;;;;;;6.00;3.17;;;30.40;96.30;;;;;;5114409;28;20051;-72
2022/08/25 11:16:34;;;;;;;5.97;2.30;;;30.50;96.60;;;;;;5113887;28;20601;-68
2022/08/25 11:19:16;;;;;;;3.40;2.53;;;30.10;95.20;;;;;;5097112;28;20047;-68
2022/08/25 11:21:59;;;;;;;6.57;2.85;;;30.20;95.40;;;;;;5113871;28;20109;-72
2022/08/25 11:25:03;;;;;;;5.13;2.40;;;30.70;95.00;;;;;;5114019;28;20039;-69
2022/08/25 11:28:09;;;;;;;3.47;2.75;;;30.40;94.10;;;;;;5113964;28;20089;-67
2022/08/25 11:30:37;;;;;;;6.30;2.42;;;30.80;95.20;;;;;;5063411;28;20496;-69
2022/08/25 11:33:04;;;;;;;4.07;2.53;;;30.40;95.00;;;;;;5113751;28;20047;-69
2022/08/25 11:35:38;;;;;;;4.35;2.88;;;30.50;94.80;;;;;;5113774;28;20126;-70
2022/08/25 11:38:29;;;;;;;7.85;2.70;;;30.80;94.50;;;;;;5113778;28;20092;-67
2022/08/25 11:41:14;;;;;;;4.88;2.65;;;30.50;93.20;;;;;;5113637;28;20043;-70
2022/08/25 11:44:06;;;;;;;4.97;2.70;;;30.60;93.90;;;;;;5113696;28;20054;-68
2022/08/25 11:46:34;;;;;;;7.25;2.70;;;30.60;94.80;;;;;;5113677;28;20484;-70
2022/08/25 11:49:37;;;;;;;5.47;2.88;;;30.80;94.80;;;;;;5113510;28;20395;-70
2022/08/25 11:52:20;;;;;;;7.57;3.13;;;30.80;94.00;;;;;;5112845;28;20411;-68
2022/08/25 11:54:47;;;;;;;5.30;3.17;;;31.10;94.60;;;;;;5113497;28;20463;-68
2022/08/25 11:57:15;;;;;;;5.68;3.00;;;31.10;94.90;;;;;;5113427;28;20054;-69
2022/08/25 11:59:59;;;;;;;6.97;2.67;;;31.00;94.10;;;;;;5113064;28;20499;-68
2022/08/25 12:02:33;;;;;;;8.43;3.25;;;31.00;93.20;;;;;;5095337;28;20360;-68
2022/08/25 12:04:59;;;;;;;4.40;2.73;;;31.10;94.10;;;;;;5112975;28;20124;-67
2022/08/25 12:07:28;;;;;;;5.93;2.50;;;31.40;94.10;;;;;;5113201;28;20075;-67
2022/08/25 12:09:54;;;;;;;10.88;3.00;;;31.10;94.10;;;;;;5113160;28;20482;-69
2022/08/25 12:12:56;;;;;;;4.78;2.60;;;30.80;93.60;;;;;;5113085;28;20124;-67
2022/08/25 12:15:30;;;;;;;5.55;2.95;;;31.40;94.00;;;;;;5113518;28;20177;-70
2022/08/25 12:18:15;;;;;;;12.73;3.35;;;31.20;92.60;;;;;;5113283;28;20087;-67
2022/08/25 12:20:55;;;;;;;9.43;3.00;;;31.00;93.80;;;;;;5112511;28;20578;-69
2022/08/25 12:23:46;;;;;;;8.88;2.90;;;31.50;93.40;;;;;;5112954;28;20486;-67
2022/08/25 12:26:30;;;;;;;11.10;2.90;;;31.20;93.20;;;;;;5112999;28;20051;-69
2022/08/25 12:29:09;;;;;;;6.07;2.90;;;31.00;93.00;;;;;;5112039;28;20054;-70
2022/08/25 12:31:57;;;;;;;5.72;2.80;;;31.40;93.60;;;;;;5112757;28;20118;-69
2022/08/25 12:34:29;;;;;;;5.00;3.00;;;31.10;93.80;;;;;;5112509;28;20056;-70
2022/08/25 12:36:58;;;;;;;4.35;2.97;;;31.30;94.20;;;;;;5112750;28;20048;-69
2022/08/25 12:39:36;;;;;;;7.10;3.03;;;31.70;94.40;;;;;;5112786;28;20054;-67
2022/08/25 12:42:05;;;;;;;4.78;3.05;;;31.30;93.30;;;;;;5112709;28;20035;-67
2022/08/25 12:45:12;;;;;;;6.90;2.85;;;31.50;93.40;;;;;;5112661;28;20040;-69
2022/08/25 12:47:41;;;;;;;10.73;3.15;;;31.50;93.10;;;;;;5112648;28;20138;-69
2022/08/25 12:50:27;;;;;;;8.40;2.85;;;31.80;93.90;;;;;;5112374;28;20083;-68
2022/08/25 12:52:58;;;;;;;3.97;3.08;;;31.70;93.30;;;;;;5112629;28;20044;-69
2022/08/25 12:55:25;;;;;;;3.95;2.90;;;31.50;94.10;;;;;;5094385;28;20147;-69
2022/08/25 12:57:57;;;;;;;5.05;2.97;;;32.00;94.00;;;;;;5112416;28;20600;-69
2022/08/25 13:00:28;;;;;;;6.75;2.92;;;32.00;93.60;;;;;;5112557;28;20047;-66
2022/08/25 13:03:03;;;;;;;3.65;2.50;;;32.10;93.50;;;;;;5112270;28;20752;-70
2022/08/25 13:06:03;;;;;;;4.82;2.63;;;32.20;91.90;;;;;;5112431;28;20130;-68
2022/08/25 13:08:45;;;;;;;4.95;3.03;;;32.40;91.20;;;;;;5112131;28;20048;-67
2022/08/25 13:11:35;;;;;;;9.07;3.30;;;32.10;91.90;;;;;;5112413;28;20058;-69